sensor_id;sensor_type;location;lat;lon;timestamp;temperature;humidity
26099;DHT22;13860;52.370;6.764;2023-01-16T00:00:17;6.20;86.80
26099;DHT22;13860;52.370;6.764;2023-01-16T00:03:19;6.20;86.80
26099;DHT22;13860;52.370;6.764;2023-01-16T00:06:21;6.20;86.80
26099;DHT22;13860;52.370;6.764;2023-01-16T00:09:22;6.20;86.80
26099;DHT22;13860;52.370;6.764;2023-01-16T00:12:24;6.20;86.80
26099;DHT22;13860;52.370;6.764;2023-01-16T00:15:25;6.20;86.80
26099;DHT22;13860;52.370;6.764;2023-01-16T00:18:27;6.20;86.80
26099;DHT22;13860;52.370;6.764;2023-01-16T00:21:28;6.20;86.70
26099;DHT22;13860;52.370;6.764;2023-01-16T00:24:29;6.30;87.40
26099;DHT22;13860;52.370;6.764;2023-01-16T00:27:31;6.30;86.80
26099;DHT22;13860;52.370;6.764;2023-01-16T00:30:32;6.30;86.80
26099;DHT22;13860;52.370;6.764;2023-01-16T00:33:34;6.30;87.20
26099;DHT22;13860;52.370;6.764;2023-01-16T00:36:35;6.30;87.40
26099;DHT22;13860;52.370;6.764;2023-01-16T00:39:39;6.30;86.90
26099;DHT22;13860;52.370;6.764;2023-01-16T00:42:41;6.40;86.90
26099;DHT22;13860;52.370;6.764;2023-01-16T00:45:42;6.30;86.70
26099;DHT22;13860;52.370;6.764;2023-01-16T00:48:44;6.30;86.70
26099;DHT22;13860;52.370;6.764;2023-01-16T00:51:45;6.30;86.80
26099;DHT22;13860;52.370;6.764;2023-01-16T00:54:46;6.40;86.80
26099;DHT22;13860;52.370;6.764;2023-01-16T00:57:48;6.40;86.80
26099;DHT22;13860;52.370;6.764;2023-01-16T01:00:49;6.40;86.80
26099;DHT22;13860;52.370;6.764;2023-01-16T01:03:51;6.40;86.80
26099;DHT22;13860;52.370;6.764;2023-01-16T01:06:52;6.40;86.80
26099;DHT22;13860;52.370;6.764;2023-01-16T01:09:54;6.40;86.70
26099;DHT22;13860;52.370;6.764;2023-01-16T01:12:55;6.40;86.70
26099;DHT22;13860;52.370;6.764;2023-01-16T01:15:56;6.40;86.70
26099;DHT22;13860;52.370;6.764;2023-01-16T01:18:58;6.40;86.80
26099;DHT22;13860;52.370;6.764;2023-01-16T01:21:59;6.40;86.80
26099;DHT22;13860;52.370;6.764;2023-01-16T01:25:00;6.40;86.70
26099;DHT22;13860;52.370;6.764;2023-01-16T01:28:02;6.50;88.40
26099;DHT22;13860;52.370;6.764;2023-01-16T01:31:09;6.40;86.90
26099;DHT22;13860;52.370;6.764;2023-01-16T01:34:10;6.40;86.80
26099;DHT22;13860;52.370;6.764;2023-01-16T01:37:12;6.40;86.90
26099;DHT22;13860;52.370;6.764;2023-01-16T01:40:13;6.50;87.00
26099;DHT22;13860;52.370;6.764;2023-01-16T01:43:16;6.50;86.80
26099;DHT22;13860;52.370;6.764;2023-01-16T01:49:31;6.40;86.70
26099;DHT22;13860;52.370;6.764;2023-01-16T01:52:34;6.40;86.70
26099;DHT22;13860;52.370;6.764;2023-01-16T01:55:36;6.40;86.80
26099;DHT22;13860;52.370;6.764;2023-01-16T01:58:39;6.40;86.80
26099;DHT22;13860;52.370;6.764;2023-01-16T02:01:47;6.50;87.40
26099;DHT22;13860;52.370;6.764;2023-01-16T02:04:49;6.50;86.80
26099;DHT22;13860;52.370;6.764;2023-01-16T02:07:53;6.50;86.80
26099;DHT22;13860;52.370;6.764;2023-01-16T02:11:06;6.40;86.80
26099;DHT22;13860;52.370;6.764;2023-01-16T02:14:09;6.50;86.80
26099;DHT22;13860;52.370;6.764;2023-01-16T02:17:14;6.50;86.80
26099;DHT22;13860;52.370;6.764;2023-01-16T02:37:54;6.40;86.80
26099;DHT22;13860;52.370;6.764;2023-01-16T02:44:24;6.30;86.80
26099;DHT22;13860;52.370;6.764;2023-01-16T02:48:04;6.30;86.80
26099;DHT22;13860;52.370;6.764;2023-01-16T02:54:44;6.30;86.80
26099;DHT22;13860;52.370;6.764;2023-01-16T02:57:49;6.30;86.90
26099;DHT22;13860;52.370;6.764;2023-01-16T03:00:56;6.20;86.80
26099;DHT22;13860;52.370;6.764;2023-01-16T03:07:09;6.20;86.90
26099;DHT22;13860;52.370;6.764;2023-01-16T03:17:08;6.20;86.90
26099;DHT22;13860;52.370;6.764;2023-01-16T03:26:48;6.10;86.90
26099;DHT22;13860;52.370;6.764;2023-01-16T03:29:57;6.10;86.90
26099;DHT22;13860;52.370;6.764;2023-01-16T03:36:32;6.10;87.00
26099;DHT22;13860;52.370;6.764;2023-01-16T03:39:53;6.10;87.00
26099;DHT22;13860;52.370;6.764;2023-01-16T03:43:06;6.10;87.00
26099;DHT22;13860;52.370;6.764;2023-01-16T03:46:18;6.10;87.00
26099;DHT22;13860;52.370;6.764;2023-01-16T03:49:28;6.10;87.00
26099;DHT22;13860;52.370;6.764;2023-01-16T03:52:35;6.10;87.10
26099;DHT22;13860;52.370;6.764;2023-01-16T03:58:43;6.00;87.00
26099;DHT22;13860;52.370;6.764;2023-01-16T04:02:10;6.00;87.00
26099;DHT22;13860;52.370;6.764;2023-01-16T04:05:31;6.00;87.10
26099;DHT22;13860;52.370;6.764;2023-01-16T04:08:39;6.00;87.10
26099;DHT22;13860;52.370;6.764;2023-01-16T04:11:42;6.00;87.10
26099;DHT22;13860;52.370;6.764;2023-01-16T04:14:47;6.00;87.10
26099;DHT22;13860;52.370;6.764;2023-01-16T04:17:49;6.00;87.10
26099;DHT22;13860;52.370;6.764;2023-01-16T04:20:51;6.00;87.10
26099;DHT22;13860;52.370;6.764;2023-01-16T04:23:55;6.00;87.10
26099;DHT22;13860;52.370;6.764;2023-01-16T04:26:56;6.00;87.10
26099;DHT22;13860;52.370;6.764;2023-01-16T04:29:58;6.00;87.10
26099;DHT22;13860;52.370;6.764;2023-01-16T04:33:03;6.00;87.10
26099;DHT22;13860;52.370;6.764;2023-01-16T04:36:05;6.00;87.10
26099;DHT22;13860;52.370;6.764;2023-01-16T04:39:06;6.00;87.10
26099;DHT22;13860;52.370;6.764;2023-01-16T04:42:09;6.00;87.20
26099;DHT22;13860;52.370;6.764;2023-01-16T04:45:10;6.00;87.10
26099;DHT22;13860;52.370;6.764;2023-01-16T04:48:12;6.00;87.10
26099;DHT22;13860;52.370;6.764;2023-01-16T04:51:13;6.00;87.20
26099;DHT22;13860;52.370;6.764;2023-01-16T04:54:16;5.90;87.10
26099;DHT22;13860;52.370;6.764;2023-01-16T04:57:18;5.90;87.10
26099;DHT22;13860;52.370;6.764;2023-01-16T05:00:19;5.90;87.10
26099;DHT22;13860;52.370;6.764;2023-01-16T05:03:21;5.90;87.10
26099;DHT22;13860;52.370;6.764;2023-01-16T05:06:22;5.90;87.20
26099;DHT22;13860;52.370;6.764;2023-01-16T05:09:23;5.80;87.70
26099;DHT22;13860;52.370;6.764;2023-01-16T05:12:25;5.80;87.10
26099;DHT22;13860;52.370;6.764;2023-01-16T05:15:26;5.80;87.10
26099;DHT22;13860;52.370;6.764;2023-01-16T05:18:28;5.80;87.20
26099;DHT22;13860;52.370;6.764;2023-01-16T05:21:29;5.80;87.20
26099;DHT22;13860;52.370;6.764;2023-01-16T05:24:30;5.80;87.20
26099;DHT22;13860;52.370;6.764;2023-01-16T05:27:32;5.80;87.30
26099;DHT22;13860;52.370;6.764;2023-01-16T05:30:33;5.80;87.30
26099;DHT22;13860;52.370;6.764;2023-01-16T05:33:35;5.70;87.30
26099;DHT22;13860;52.370;6.764;2023-01-16T05:36:36;5.70;87.20
26099;DHT22;13860;52.370;6.764;2023-01-16T05:39:37;5.70;87.30
26099;DHT22;13860;52.370;6.764;2023-01-16T05:42:41;5.70;87.30
26099;DHT22;13860;52.370;6.764;2023-01-16T05:45:43;5.70;87.30
26099;DHT22;13860;52.370;6.764;2023-01-16T05:48:44;5.70;87.30
26099;DHT22;13860;52.370;6.764;2023-01-16T05:51:46;5.70;87.30
26099;DHT22;13860;52.370;6.764;2023-01-16T05:54:47;5.70;87.30
26099;DHT22;13860;52.370;6.764;2023-01-16T05:57:48;5.60;87.30
26099;DHT22;13860;52.370;6.764;2023-01-16T06:00:50;5.60;87.30
26099;DHT22;13860;52.370;6.764;2023-01-16T06:03:51;5.60;87.30
26099;DHT22;13860;52.370;6.764;2023-01-16T06:06:53;5.60;87.30
26099;DHT22;13860;52.370;6.764;2023-01-16T06:09:55;5.60;87.40
26099;DHT22;13860;52.370;6.764;2023-01-16T06:12:56;5.50;87.30
26099;DHT22;13860;52.370;6.764;2023-01-16T06:15:58;5.50;87.30
26099;DHT22;13860;52.370;6.764;2023-01-16T06:19:00;5.50;87.40
26099;DHT22;13860;52.370;6.764;2023-01-16T06:22:01;5.50;87.40
26099;DHT22;13860;52.370;6.764;2023-01-16T06:25:03;5.50;87.40
26099;DHT22;13860;52.370;6.764;2023-01-16T06:28:05;5.50;87.40
26099;DHT22;13860;52.370;6.764;2023-01-16T06:31:07;5.50;87.40
26099;DHT22;13860;52.370;6.764;2023-01-16T06:34:09;5.40;87.40
26099;DHT22;13860;52.370;6.764;2023-01-16T06:37:11;5.40;87.40
26099;DHT22;13860;52.370;6.764;2023-01-16T06:40:13;5.40;87.40
26099;DHT22;13860;52.370;6.764;2023-01-16T06:43:14;5.40;87.40
26099;DHT22;13860;52.370;6.764;2023-01-16T06:46:17;5.40;87.40
26099;DHT22;13860;52.370;6.764;2023-01-16T06:49:19;5.40;87.40
26099;DHT22;13860;52.370;6.764;2023-01-16T06:52:20;5.30;87.40
26099;DHT22;13860;52.370;6.764;2023-01-16T06:55:21;5.30;87.40
26099;DHT22;13860;52.370;6.764;2023-01-16T06:58:23;5.30;87.40
26099;DHT22;13860;52.370;6.764;2023-01-16T07:01:24;5.30;87.40
26099;DHT22;13860;52.370;6.764;2023-01-16T07:04:26;5.30;88.10
26099;DHT22;13860;52.370;6.764;2023-01-16T07:07:27;5.30;87.60
26099;DHT22;13860;52.370;6.764;2023-01-16T07:10:29;5.20;87.80
26099;DHT22;13860;52.370;6.764;2023-01-16T07:13:30;5.30;87.50
26099;DHT22;13860;52.370;6.764;2023-01-16T07:16:32;5.20;87.40
26099;DHT22;13860;52.370;6.764;2023-01-16T07:19:52;5.20;87.40
26099;DHT22;13860;52.370;6.764;2023-01-16T07:23:22;5.20;87.50
26099;DHT22;13860;52.370;6.764;2023-01-16T07:26:24;5.20;87.50
26099;DHT22;13860;52.370;6.764;2023-01-16T07:29:28;5.20;87.50
26099;DHT22;13860;52.370;6.764;2023-01-16T07:32:30;5.20;87.50
26099;DHT22;13860;52.370;6.764;2023-01-16T07:35:35;5.20;87.50
26099;DHT22;13860;52.370;6.764;2023-01-16T07:38:36;5.20;87.50
26099;DHT22;13860;52.370;6.764;2023-01-16T07:41:37;5.20;87.50
26099;DHT22;13860;52.370;6.764;2023-01-16T07:44:58;5.20;87.50
26099;DHT22;13860;52.370;6.764;2023-01-16T07:47:59;5.20;87.50
26099;DHT22;13860;52.370;6.764;2023-01-16T07:51:01;5.20;87.60
26099;DHT22;13860;52.370;6.764;2023-01-16T07:54:03;5.20;87.50
26099;DHT22;13860;52.370;6.764;2023-01-16T07:57:04;5.20;87.50
26099;DHT22;13860;52.370;6.764;2023-01-16T08:00:07;5.20;87.60
26099;DHT22;13860;52.370;6.764;2023-01-16T08:03:12;5.20;87.60
26099;DHT22;13860;52.370;6.764;2023-01-16T08:06:15;5.20;87.70
26099;DHT22;13860;52.370;6.764;2023-01-16T08:09:16;5.30;87.60
26099;DHT22;13860;52.370;6.764;2023-01-16T08:12:17;5.30;87.70
26099;DHT22;13860;52.370;6.764;2023-01-16T08:15:19;5.30;87.70
26099;DHT22;13860;52.370;6.764;2023-01-16T08:18:20;5.30;87.70
26099;DHT22;13860;52.370;6.764;2023-01-16T08:21:22;5.30;90.10
26099;DHT22;13860;52.370;6.764;2023-01-16T08:24:23;5.40;88.20
26099;DHT22;13860;52.370;6.764;2023-01-16T08:27:26;5.40;89.60
26099;DHT22;13860;52.370;6.764;2023-01-16T08:30:27;5.40;88.00
26099;DHT22;13860;52.370;6.764;2023-01-16T08:33:29;5.60;89.70
26099;DHT22;13860;52.370;6.764;2023-01-16T08:36:30;5.40;88.50
26099;DHT22;13860;52.370;6.764;2023-01-16T08:39:31;5.50;88.20
26099;DHT22;13860;52.370;6.764;2023-01-16T08:42:33;5.40;87.60
26099;DHT22;13860;52.370;6.764;2023-01-16T08:45:53;5.50;87.70
26099;DHT22;13860;52.370;6.764;2023-01-16T08:49:14;5.50;87.70
26099;DHT22;13860;52.370;6.764;2023-01-16T08:52:35;5.50;87.60
26099;DHT22;13860;52.370;6.764;2023-01-16T08:55:38;5.50;87.60
26099;DHT22;13860;52.370;6.764;2023-01-16T08:58:42;5.50;87.70
26099;DHT22;13860;52.370;6.764;2023-01-16T09:01:43;5.60;87.70
26099;DHT22;13860;52.370;6.764;2023-01-16T09:04:45;5.60;87.70
26099;DHT22;13860;52.370;6.764;2023-01-16T09:07:46;5.60;87.70
26099;DHT22;13860;52.370;6.764;2023-01-16T09:10:47;5.60;87.70
26099;DHT22;13860;52.370;6.764;2023-01-16T09:14:07;5.60;87.80
26099;DHT22;13860;52.370;6.764;2023-01-16T09:17:26;5.60;87.80
26099;DHT22;13860;52.370;6.764;2023-01-16T09:20:28;5.60;87.70
26099;DHT22;13860;52.370;6.764;2023-01-16T09:23:29;5.70;87.80
26099;DHT22;13860;52.370;6.764;2023-01-16T09:26:31;5.60;87.80
26099;DHT22;13860;52.370;6.764;2023-01-16T09:29:32;5.60;87.80
26099;DHT22;13860;52.370;6.764;2023-01-16T09:32:33;5.70;87.80
26099;DHT22;13860;52.370;6.764;2023-01-16T09:35:35;5.60;87.70
26099;DHT22;13860;52.370;6.764;2023-01-16T09:38:36;5.70;87.80
26099;DHT22;13860;52.370;6.764;2023-01-16T09:45:22;5.60;87.80
26099;DHT22;13860;52.370;6.764;2023-01-16T09:48:30;5.70;87.90
26099;DHT22;13860;52.370;6.764;2023-01-16T09:51:39;5.60;87.90
26099;DHT22;13860;52.370;6.764;2023-01-16T09:54:44;5.70;87.80
26099;DHT22;13860;52.370;6.764;2023-01-16T09:58:11;5.70;87.80
26099;DHT22;13860;52.370;6.764;2023-01-16T10:01:36;5.60;87.80
26099;DHT22;13860;52.370;6.764;2023-01-16T10:04:39;5.60;87.90
26099;DHT22;13860;52.370;6.764;2023-01-16T10:25:00;5.60;88.10
26099;DHT22;13860;52.370;6.764;2023-01-16T10:28:16;5.60;88.00
26099;DHT22;13860;52.370;6.764;2023-01-16T10:31:42;5.60;87.90
26099;DHT22;13860;52.370;6.764;2023-01-16T10:41:33;5.60;87.90
26099;DHT22;13860;52.370;6.764;2023-01-16T10:45:01;5.60;88.00
26099;DHT22;13860;52.370;6.764;2023-01-16T10:48:29;5.60;88.60
26099;DHT22;13860;52.370;6.764;2023-01-16T10:51:50;5.60;87.90
26099;DHT22;13860;52.370;6.764;2023-01-16T10:54:53;5.60;88.00
26099;DHT22;13860;52.370;6.764;2023-01-16T10:57:58;5.60;88.00
26099;DHT22;13860;52.370;6.764;2023-01-16T11:01:06;5.60;88.00
26099;DHT22;13860;52.370;6.764;2023-01-16T11:04:11;5.70;88.10
26099;DHT22;13860;52.370;6.764;2023-01-16T11:07:19;5.70;88.20
26099;DHT22;13860;52.370;6.764;2023-01-16T11:10:22;5.70;88.20
26099;DHT22;13860;52.370;6.764;2023-01-16T11:13:25;5.70;88.20
26099;DHT22;13860;52.370;6.764;2023-01-16T11:16:46;5.80;88.30
26099;DHT22;13860;52.370;6.764;2023-01-16T11:20:09;5.80;88.20
26099;DHT22;13860;52.370;6.764;2023-01-16T11:23:17;5.80;88.20
26099;DHT22;13860;52.370;6.764;2023-01-16T11:26:19;5.80;88.30
26099;DHT22;13860;52.370;6.764;2023-01-16T11:29:23;5.80;88.20
26099;DHT22;13860;52.370;6.764;2023-01-16T11:32:26;5.90;88.40
26099;DHT22;13860;52.370;6.764;2023-01-16T11:35:31;5.90;88.30
26099;DHT22;13860;52.370;6.764;2023-01-16T11:38:35;5.90;88.40
26099;DHT22;13860;52.370;6.764;2023-01-16T11:41:38;5.90;88.30
26099;DHT22;13860;52.370;6.764;2023-01-16T11:44:41;5.90;88.30
26099;DHT22;13860;52.370;6.764;2023-01-16T11:48:05;5.90;88.40
26099;DHT22;13860;52.370;6.764;2023-01-16T11:51:27;6.00;88.40
26099;DHT22;13860;52.370;6.764;2023-01-16T11:54:32;6.00;88.40
26099;DHT22;13860;52.370;6.764;2023-01-16T11:57:57;6.00;88.40
26099;DHT22;13860;52.370;6.764;2023-01-16T12:01:09;6.00;88.40
26099;DHT22;13860;52.370;6.764;2023-01-16T12:04:22;6.00;88.40
26099;DHT22;13860;52.370;6.764;2023-01-16T12:07:29;6.10;88.40
26099;DHT22;13860;52.370;6.764;2023-01-16T12:14:23;6.10;88.50
26099;DHT22;13860;52.370;6.764;2023-01-16T12:18:00;6.10;88.40
26099;DHT22;13860;52.370;6.764;2023-01-16T12:24:46;6.10;88.40
26099;DHT22;13860;52.370;6.764;2023-01-16T12:35:10;6.10;88.50
26099;DHT22;13860;52.370;6.764;2023-01-16T12:38:14;6.20;88.50
26099;DHT22;13860;52.370;6.764;2023-01-16T12:41:20;6.10;88.50
26099;DHT22;13860;52.370;6.764;2023-01-16T12:55:06;6.30;88.80
26099;DHT22;13860;52.370;6.764;2023-01-16T12:58:30;6.30;88.70
26099;DHT22;13860;52.370;6.764;2023-01-16T13:01:38;6.40;88.80
26099;DHT22;13860;52.370;6.764;2023-01-16T13:04:48;6.40;88.90
26099;DHT22;13860;52.370;6.764;2023-01-16T13:07:56;6.40;89.00
26099;DHT22;13860;52.370;6.764;2023-01-16T13:11:08;6.70;90.00
26099;DHT22;13860;52.370;6.764;2023-01-16T13:14:30;6.40;89.90
26099;DHT22;13860;52.370;6.764;2023-01-16T13:17:49;6.40;91.20
26099;DHT22;13860;52.370;6.764;2023-01-16T13:21:01;6.50;88.70
26099;DHT22;13860;52.370;6.764;2023-01-16T13:24:14;6.50;88.70
26099;DHT22;13860;52.370;6.764;2023-01-16T13:27:21;6.50;88.80
26099;DHT22;13860;52.370;6.764;2023-01-16T13:30:23;6.60;88.90
26099;DHT22;13860;52.370;6.764;2023-01-16T13:33:29;6.60;88.90
26099;DHT22;13860;52.370;6.764;2023-01-16T13:37:09;6.40;88.70
26099;DHT22;13860;52.370;6.764;2023-01-16T13:43:38;6.70;88.80
26099;DHT22;13860;52.370;6.764;2023-01-16T13:47:05;6.70;88.70
26099;DHT22;13860;52.370;6.764;2023-01-16T13:53:15;6.80;88.80
26099;DHT22;13860;52.370;6.764;2023-01-16T13:56:22;6.70;88.60
26099;DHT22;13860;52.370;6.764;2023-01-16T13:59:52;6.70;88.60
26099;DHT22;13860;52.370;6.764;2023-01-16T14:03:22;6.70;88.60
26099;DHT22;13860;52.370;6.764;2023-01-16T14:06:27;6.70;88.70
26099;DHT22;13860;52.370;6.764;2023-01-16T14:09:29;6.70;88.50
26099;DHT22;13860;52.370;6.764;2023-01-16T14:13:00;6.80;88.60
26099;DHT22;13860;52.370;6.764;2023-01-16T14:16:29;6.70;88.60
26099;DHT22;13860;52.370;6.764;2023-01-16T14:19:52;6.80;88.60
26099;DHT22;13860;52.370;6.764;2023-01-16T14:22:55;6.70;88.50
26099;DHT22;13860;52.370;6.764;2023-01-16T14:29:47;6.70;88.50
26099;DHT22;13860;52.370;6.764;2023-01-16T14:32:53;6.70;88.40
26099;DHT22;13860;52.370;6.764;2023-01-16T14:35:57;6.70;88.50
26099;DHT22;13860;52.370;6.764;2023-01-16T14:38:59;6.70;88.50
26099;DHT22;13860;52.370;6.764;2023-01-16T14:42:18;6.60;88.40
26099;DHT22;13860;52.370;6.764;2023-01-16T14:45:40;6.60;88.40
26099;DHT22;13860;52.370;6.764;2023-01-16T14:56:27;6.60;88.40
26099;DHT22;13860;52.370;6.764;2023-01-16T14:59:35;6.60;88.40
26099;DHT22;13860;52.370;6.764;2023-01-16T15:02:45;6.50;88.40
26099;DHT22;13860;52.370;6.764;2023-01-16T15:05:50;6.60;88.40
26099;DHT22;13860;52.370;6.764;2023-01-16T15:08:54;6.70;89.70
26099;DHT22;13860;52.370;6.764;2023-01-16T15:11:58;6.50;88.50
26099;DHT22;13860;52.370;6.764;2023-01-16T15:15:00;6.50;88.40
26099;DHT22;13860;52.370;6.764;2023-01-16T15:18:01;6.50;88.50
26099;DHT22;13860;52.370;6.764;2023-01-16T15:21:22;6.50;88.50
26099;DHT22;13860;52.370;6.764;2023-01-16T15:24:46;6.50;88.60
26099;DHT22;13860;52.370;6.764;2023-01-16T15:27:57;6.50;88.90
26099;DHT22;13860;52.370;6.764;2023-01-16T15:37:21;6.50;88.80
26099;DHT22;13860;52.370;6.764;2023-01-16T15:40:24;6.40;88.50
26099;DHT22;13860;52.370;6.764;2023-01-16T15:43:26;6.50;88.60
26099;DHT22;13860;52.370;6.764;2023-01-16T15:47:08;6.50;88.60
26099;DHT22;13860;52.370;6.764;2023-01-16T15:53:37;6.40;88.50
26099;DHT22;13860;52.370;6.764;2023-01-16T15:56:45;6.50;88.50
26099;DHT22;13860;52.370;6.764;2023-01-16T15:59:56;6.40;88.60
26099;DHT22;13860;52.370;6.764;2023-01-16T16:03:11;6.40;88.50
26099;DHT22;13860;52.370;6.764;2023-01-16T16:06:14;6.40;88.50
26099;DHT22;13860;52.370;6.764;2023-01-16T16:09:20;6.40;88.50
26099;DHT22;13860;52.370;6.764;2023-01-16T16:12:23;6.40;88.60
26099;DHT22;13860;52.370;6.764;2023-01-16T16:15:25;6.40;88.50
26099;DHT22;13860;52.370;6.764;2023-01-16T16:18:58;6.40;88.60
26099;DHT22;13860;52.370;6.764;2023-01-16T16:22:02;6.40;88.60
26099;DHT22;13860;52.370;6.764;2023-01-16T16:25:38;6.40;88.50
26099;DHT22;13860;52.370;6.764;2023-01-16T16:28:41;6.40;88.50
26099;DHT22;13860;52.370;6.764;2023-01-16T16:31:43;6.40;88.80
26099;DHT22;13860;52.370;6.764;2023-01-16T16:34:54;6.40;89.10
26099;DHT22;13860;52.370;6.764;2023-01-16T16:37:56;6.40;88.60
26099;DHT22;13860;52.370;6.764;2023-01-16T16:44:08;6.40;88.60
26099;DHT22;13860;52.370;6.764;2023-01-16T16:47:27;6.30;88.60
26099;DHT22;13860;52.370;6.764;2023-01-16T16:50:32;6.30;88.60
26099;DHT22;13860;52.370;6.764;2023-01-16T16:53:34;6.40;88.60
26099;DHT22;13860;52.370;6.764;2023-01-16T16:56:37;6.30;88.60
26099;DHT22;13860;52.370;6.764;2023-01-16T16:59:42;6.40;88.60
26099;DHT22;13860;52.370;6.764;2023-01-16T17:02:51;6.40;88.60
26099;DHT22;13860;52.370;6.764;2023-01-16T17:05:54;6.30;88.60
26099;DHT22;13860;52.370;6.764;2023-01-16T17:08:55;6.40;88.70
26099;DHT22;13860;52.370;6.764;2023-01-16T17:12:00;6.40;88.70
26099;DHT22;13860;52.370;6.764;2023-01-16T17:15:11;6.30;88.60
26099;DHT22;13860;52.370;6.764;2023-01-16T17:18:14;6.30;88.60
26099;DHT22;13860;52.370;6.764;2023-01-16T17:21:17;6.40;88.70
26099;DHT22;13860;52.370;6.764;2023-01-16T17:24:20;6.30;88.70
26099;DHT22;13860;52.370;6.764;2023-01-16T17:27:21;6.30;88.70
26099;DHT22;13860;52.370;6.764;2023-01-16T17:30:23;6.30;88.70
26099;DHT22;13860;52.370;6.764;2023-01-16T17:33:25;6.40;88.70
26099;DHT22;13860;52.370;6.764;2023-01-16T17:36:28;6.40;88.70
26099;DHT22;13860;52.370;6.764;2023-01-16T17:39:30;6.40;88.80
26099;DHT22;13860;52.370;6.764;2023-01-16T17:42:32;6.30;88.70
26099;DHT22;13860;52.370;6.764;2023-01-16T17:45:52;6.40;88.70
26099;DHT22;13860;52.370;6.764;2023-01-16T17:48:56;6.30;89.20
26099;DHT22;13860;52.370;6.764;2023-01-16T17:51:58;6.30;88.70
26099;DHT22;13860;52.370;6.764;2023-01-16T17:54:59;6.30;88.70
26099;DHT22;13860;52.370;6.764;2023-01-16T17:58:34;6.30;89.40
26099;DHT22;13860;52.370;6.764;2023-01-16T18:01:47;6.30;88.80
26099;DHT22;13860;52.370;6.764;2023-01-16T18:04:48;6.30;88.80
26099;DHT22;13860;52.370;6.764;2023-01-16T18:07:51;6.30;88.80
26099;DHT22;13860;52.370;6.764;2023-01-16T18:10:52;6.30;88.80
26099;DHT22;13860;52.370;6.764;2023-01-16T18:13:54;6.30;88.80
26099;DHT22;13860;52.370;6.764;2023-01-16T18:17:15;6.30;88.80
26099;DHT22;13860;52.370;6.764;2023-01-16T18:20:24;6.30;88.80
26099;DHT22;13860;52.370;6.764;2023-01-16T18:23:25;6.30;88.80
26099;DHT22;13860;52.370;6.764;2023-01-16T18:26:27;6.30;88.80
26099;DHT22;13860;52.370;6.764;2023-01-16T18:29:28;6.30;88.80
26099;DHT22;13860;52.370;6.764;2023-01-16T18:32:30;6.30;88.90
26099;DHT22;13860;52.370;6.764;2023-01-16T18:35:31;6.20;88.80
26099;DHT22;13860;52.370;6.764;2023-01-16T18:38:33;6.30;88.90
26099;DHT22;13860;52.370;6.764;2023-01-16T18:41:53;6.30;88.90
26099;DHT22;13860;52.370;6.764;2023-01-16T18:45:16;6.30;88.80
26099;DHT22;13860;52.370;6.764;2023-01-16T18:48:36;6.30;88.80
26099;DHT22;13860;52.370;6.764;2023-01-16T18:51:56;6.30;88.80
26099;DHT22;13860;52.370;6.764;2023-01-16T18:55:17;6.30;88.80
26099;DHT22;13860;52.370;6.764;2023-01-16T18:58:37;6.30;88.80
26099;DHT22;13860;52.370;6.764;2023-01-16T19:01:58;6.30;88.80
26099;DHT22;13860;52.370;6.764;2023-01-16T19:05:00;6.30;88.90
26099;DHT22;13860;52.370;6.764;2023-01-16T19:08:04;6.30;88.90
26099;DHT22;13860;52.370;6.764;2023-01-16T19:11:06;6.30;88.90
26099;DHT22;13860;52.370;6.764;2023-01-16T19:14:08;6.30;88.90
26099;DHT22;13860;52.370;6.764;2023-01-16T19:17:10;6.30;88.90
26099;DHT22;13860;52.370;6.764;2023-01-16T19:20:11;6.30;88.90
26099;DHT22;13860;52.370;6.764;2023-01-16T19:23:18;6.30;88.90
26099;DHT22;13860;52.370;6.764;2023-01-16T19:26:19;6.30;88.90
26099;DHT22;13860;52.370;6.764;2023-01-16T19:29:21;6.30;89.10
26099;DHT22;13860;52.370;6.764;2023-01-16T19:32:23;6.30;88.90
26099;DHT22;13860;52.370;6.764;2023-01-16T19:35:26;6.30;88.90
26099;DHT22;13860;52.370;6.764;2023-01-16T19:38:28;6.30;88.90
26099;DHT22;13860;52.370;6.764;2023-01-16T19:41:29;6.30;88.90
26099;DHT22;13860;52.370;6.764;2023-01-16T19:44:49;6.30;88.90
26099;DHT22;13860;52.370;6.764;2023-01-16T19:48:09;6.30;88.90
26099;DHT22;13860;52.370;6.764;2023-01-16T19:51:11;6.30;89.00
26099;DHT22;13860;52.370;6.764;2023-01-16T19:54:12;6.30;89.00
26099;DHT22;13860;52.370;6.764;2023-01-16T19:57:14;6.30;89.00
26099;DHT22;13860;52.370;6.764;2023-01-16T20:00:15;6.30;89.10
26099;DHT22;13860;52.370;6.764;2023-01-16T20:03:17;6.30;89.40
26099;DHT22;13860;52.370;6.764;2023-01-16T20:06:18;6.30;89.20
26099;DHT22;13860;52.370;6.764;2023-01-16T20:09:20;6.30;89.20
26099;DHT22;13860;52.370;6.764;2023-01-16T20:12:22;6.30;89.30
26099;DHT22;13860;52.370;6.764;2023-01-16T20:15:27;6.30;89.20
26099;DHT22;13860;52.370;6.764;2023-01-16T20:18:30;6.40;89.20
26099;DHT22;13860;52.370;6.764;2023-01-16T20:21:32;6.40;89.20
26099;DHT22;13860;52.370;6.764;2023-01-16T20:24:34;6.40;89.10
26099;DHT22;13860;52.370;6.764;2023-01-16T20:27:37;6.40;89.10
26099;DHT22;13860;52.370;6.764;2023-01-16T20:30:39;6.40;89.20
26099;DHT22;13860;52.370;6.764;2023-01-16T20:33:46;6.40;89.10
26099;DHT22;13860;52.370;6.764;2023-01-16T20:36:48;6.40;89.70
26099;DHT22;13860;52.370;6.764;2023-01-16T20:39:50;6.40;89.10
26099;DHT22;13860;52.370;6.764;2023-01-16T20:42:53;6.40;89.20
26099;DHT22;13860;52.370;6.764;2023-01-16T20:46:13;6.40;89.20
26099;DHT22;13860;52.370;6.764;2023-01-16T20:49:14;7.00;89.80
26099;DHT22;13860;52.370;6.764;2023-01-16T20:52:17;6.30;89.10
26099;DHT22;13860;52.370;6.764;2023-01-16T20:55:19;6.30;89.10
26099;DHT22;13860;52.370;6.764;2023-01-16T20:58:38;6.30;89.00
26099;DHT22;13860;52.370;6.764;2023-01-16T21:01:40;6.20;89.00
26099;DHT22;13860;52.370;6.764;2023-01-16T21:04:42;6.20;89.00
26099;DHT22;13860;52.370;6.764;2023-01-16T21:07:44;6.10;89.00
26099;DHT22;13860;52.370;6.764;2023-01-16T21:10:45;6.10;88.90
26099;DHT22;13860;52.370;6.764;2023-01-16T21:13:46;6.10;88.90
26099;DHT22;13860;52.370;6.764;2023-01-16T21:17:07;6.00;88.90
26099;DHT22;13860;52.370;6.764;2023-01-16T21:20:28;6.00;88.80
26099;DHT22;13860;52.370;6.764;2023-01-16T21:23:48;6.00;88.90
26099;DHT22;13860;52.370;6.764;2023-01-16T21:26:49;5.90;88.80
26099;DHT22;13860;52.370;6.764;2023-01-16T21:29:55;5.90;88.90
26099;DHT22;13860;52.370;6.764;2023-01-16T21:32:57;5.90;89.00
26099;DHT22;13860;52.370;6.764;2023-01-16T21:36:05;5.80;88.90
26099;DHT22;13860;52.370;6.764;2023-01-16T21:39:06;5.80;88.90
26099;DHT22;13860;52.370;6.764;2023-01-16T21:42:09;5.70;88.90
26099;DHT22;13860;52.370;6.764;2023-01-16T21:45:30;5.70;88.80
26099;DHT22;13860;52.370;6.764;2023-01-16T21:48:50;5.70;88.80
26099;DHT22;13860;52.370;6.764;2023-01-16T21:51:51;5.70;88.90
26099;DHT22;13860;52.370;6.764;2023-01-16T21:54:52;5.60;88.90
26099;DHT22;13860;52.370;6.764;2023-01-16T21:57:54;5.60;88.90
26099;DHT22;13860;52.370;6.764;2023-01-16T22:00:55;5.60;88.90
26099;DHT22;13860;52.370;6.764;2023-01-16T22:03:57;5.60;88.90
26099;DHT22;13860;52.370;6.764;2023-01-16T22:06:59;5.50;88.90
26099;DHT22;13860;52.370;6.764;2023-01-16T22:10:01;5.50;88.90